createdAt,value
2022-10-12T00:04:48.960Z,4.90
2022-10-12T00:09:51.214Z,4.50
2022-10-12T00:14:53.234Z,4.82
2022-10-12T00:19:55.239Z,4.95
2022-10-12T00:24:57.227Z,4.85
2022-10-12T00:29:59.290Z,5.00
2022-10-12T00:35:01.491Z,4.53
2022-10-12T00:40:03.768Z,4.70
2022-10-12T00:45:06.279Z,4.47
2022-10-12T00:50:17.608Z,4.55
2022-10-12T00:55:22.092Z,4.10
2022-10-12T01:00:24.225Z,4.63
2022-10-12T01:05:26.765Z,5.25
2022-10-12T01:10:28.779Z,4.40
2022-10-12T01:15:40.615Z,4.63
2022-10-12T01:21:01.291Z,4.68
2022-10-12T01:26:31.624Z,5.03
2022-10-12T01:31:44.396Z,5.15
2022-10-12T01:36:54.668Z,4.28
2022-10-12T01:42:02.917Z,4.70
2022-10-12T01:47:04.966Z,4.88
2022-10-12T01:52:21.172Z,4.63
2022-10-12T01:58:00.956Z,4.68
2022-10-12T02:03:14.169Z,4.80
2022-10-12T02:08:35.990Z,4.90
2022-10-12T02:14:01.434Z,4.90
2022-10-12T02:19:07.485Z,5.25
2022-10-12T02:24:10.305Z,5.40
2022-10-12T02:29:17.502Z,4.38
2022-10-12T02:34:29.236Z,5.20
2022-10-12T02:39:38.772Z,5.70
2022-10-12T02:44:43.337Z,5.43
2022-10-12T02:49:46.575Z,5.53
2022-10-12T02:54:48.544Z,5.50
2022-10-12T02:59:50.684Z,5.25
2022-10-12T03:04:52.662Z,5.70
2022-10-12T03:09:54.703Z,5.88
2022-10-12T03:14:56.678Z,5.60
2022-10-12T03:19:58.698Z,5.82
2022-10-12T03:25:00.678Z,5.78
2022-10-12T03:30:02.998Z,5.88
2022-10-12T03:35:05.376Z,5.90
2022-10-12T03:40:08.224Z,5.38
2022-10-12T03:45:10.368Z,5.65
2022-10-12T03:50:12.596Z,5.40
2022-10-12T03:55:14.682Z,6.13
2022-10-12T04:00:17.048Z,5.28
2022-10-12T04:05:19.071Z,5.55
2022-10-12T04:10:21.157Z,5.40
2022-10-12T04:20:30.442Z,5.45
2022-10-12T04:25:32.468Z,5.05
2022-10-12T04:30:34.527Z,5.97
2022-10-12T04:35:36.521Z,5.68
2022-10-12T04:40:38.884Z,5.75
2022-10-12T04:45:40.901Z,5.65
2022-10-12T04:50:43.036Z,5.72
2022-10-12T04:55:44.990Z,5.80
2022-10-12T05:00:49.059Z,5.07
2022-10-12T05:05:52.483Z,6.57
2022-10-12T05:10:58.040Z,5.60
2022-10-12T05:16:00.102Z,6.28
2022-10-12T05:21:02.195Z,5.38
2022-10-12T05:26:04.292Z,5.38
2022-10-12T05:31:06.294Z,6.18
2022-10-12T05:36:08.800Z,6.88
2022-10-12T05:41:10.811Z,6.30
2022-10-12T05:46:14.529Z,6.85
2022-10-12T05:51:16.719Z,5.57
2022-10-12T05:56:19.082Z,6.55
2022-10-12T06:01:21.179Z,6.45
2022-10-12T06:06:23.389Z,6.45
2022-10-12T06:11:25.971Z,7.15
2022-10-12T06:16:28.123Z,6.90
2022-10-12T06:21:34.334Z,6.40
2022-10-12T06:26:36.777Z,6.75
2022-10-12T06:31:39.858Z,6.68
2022-10-12T06:36:42.091Z,7.55
2022-10-12T06:41:44.120Z,7.43
2022-10-12T06:46:46.584Z,7.78
2022-10-12T06:51:48.539Z,7.25
2022-10-12T06:56:51.856Z,7.95
2022-10-12T07:01:55.374Z,12.13
2022-10-12T07:06:57.488Z,8.27
2022-10-12T07:11:59.535Z,10.70
2022-10-12T07:17:01.529Z,10.50
2022-10-12T07:22:03.493Z,7.88
2022-10-12T07:27:08.628Z,7.38
2022-10-12T07:32:10.607Z,7.90
2022-10-12T07:37:13.221Z,8.55
2022-10-12T07:42:19.124Z,8.20
2022-10-12T07:47:21.623Z,11.00
2022-10-12T07:52:23.659Z,11.48
2022-10-12T07:57:25.668Z,12.57
2022-10-12T08:02:27.988Z,13.10
2022-10-12T08:07:29.977Z,12.35
2022-10-12T08:12:31.975Z,15.02
2022-10-12T08:17:33.965Z,15.48
2022-10-12T08:22:36.027Z,17.13
2022-10-12T08:27:38.628Z,17.42
2022-10-12T08:32:40.799Z,20.52
2022-10-12T08:37:42.751Z,19.65
2022-10-12T08:42:56.467Z,20.20
2022-10-12T08:48:20.472Z,20.05
2022-10-12T08:53:33.004Z,20.17
2022-10-12T08:58:37.811Z,18.55
2022-10-12T09:04:04.867Z,19.13
2022-10-12T09:09:30.419Z,17.65
2022-10-12T09:14:36.076Z,18.88
2022-10-12T09:19:42.306Z,16.20
2022-10-12T09:24:46.509Z,15.90
2022-10-12T09:29:56.855Z,13.68
2022-10-12T09:34:59.568Z,13.73
2022-10-12T09:40:02.032Z,12.18
2022-10-12T09:45:20.084Z,12.63
2022-10-12T09:50:39.812Z,12.40
2022-10-12T09:55:52.825Z,10.52
2022-10-12T10:01:19.391Z,8.75
2022-10-12T10:06:25.725Z,9.07
2022-10-12T10:11:31.524Z,9.50
2022-10-12T10:16:33.594Z,7.90
2022-10-12T10:21:38.134Z,8.30
2022-10-12T10:26:57.600Z,8.52
2022-10-12T10:32:23.954Z,7.32
2022-10-12T10:37:26.100Z,9.00
2022-10-12T10:42:31.812Z,7.95
2022-10-12T10:47:42.129Z,6.15
2022-10-12T10:52:55.077Z,7.67
2022-10-12T10:58:16.289Z,6.80
2022-10-12T11:03:29.473Z,5.10
2022-10-12T11:08:34.652Z,4.72
2022-10-12T11:14:09.500Z,5.95
2022-10-12T11:19:22.972Z,4.40
2022-10-12T11:24:43.271Z,5.40
2022-10-12T11:29:57.976Z,4.15
2022-10-12T11:35:13.699Z,4.18
2022-10-12T11:40:41.261Z,3.60
2022-10-12T11:45:49.546Z,3.75
2022-10-12T11:50:51.870Z,3.20
2022-10-12T11:56:05.674Z,3.42
2022-10-12T12:01:26.090Z,3.28
2022-10-12T12:11:33.921Z,2.70
2022-10-12T12:16:42.704Z,3.40
2022-10-12T12:22:15.597Z,3.28
2022-10-12T12:27:36.804Z,3.40
2022-10-12T12:32:46.986Z,3.35
2022-10-12T12:37:50.105Z,3.47
2022-10-12T12:42:52.129Z,3.20
2022-10-12T12:47:54.159Z,3.97
2022-10-12T12:53:12.640Z,3.35
2022-10-12T12:58:36.540Z,3.40
2022-10-12T13:04:09.323Z,3.30
2022-10-12T13:09:20.008Z,3.58
2022-10-12T13:14:49.145Z,3.47
2022-10-12T13:19:54.589Z,3.35
2022-10-12T13:25:04.261Z,3.30
2022-10-12T13:30:21.380Z,3.33
2022-10-12T13:35:30.161Z,2.97
2022-10-12T13:40:38.628Z,3.25
2022-10-12T13:45:45.879Z,3.80
2022-10-12T13:50:56.217Z,3.40
2022-10-12T13:56:05.161Z,3.20
2022-10-12T14:01:09.915Z,3.25
2022-10-12T14:06:30.987Z,2.60
2022-10-12T14:11:34.340Z,3.10
2022-10-12T14:16:36.359Z,2.80
2022-10-12T14:21:44.640Z,2.50
2022-10-12T14:26:54.402Z,2.83
2022-10-12T14:31:59.187Z,2.80
2022-10-12T14:37:13.150Z,3.53
2022-10-12T14:42:36.046Z,3.20
2022-10-12T14:47:40.125Z,3.70
2022-10-12T14:52:42.158Z,3.50
2022-10-12T14:57:44.731Z,3.38
2022-10-12T15:02:47.501Z,3.55
2022-10-12T15:07:50.302Z,4.15
2022-10-12T15:12:53.187Z,3.88
2022-10-12T15:17:55.316Z,4.63
2022-10-12T15:22:59.094Z,4.32
2022-10-12T15:28:02.557Z,4.00
2022-10-12T15:33:04.606Z,4.15
2022-10-12T15:38:07.061Z,4.10
2022-10-12T15:43:10.357Z,4.28
2022-10-12T15:48:12.509Z,4.18
2022-10-12T15:53:25.495Z,3.45
2022-10-12T15:58:27.541Z,4.03
2022-10-12T16:03:31.607Z,4.10
2022-10-12T16:08:33.736Z,3.90
2022-10-12T16:13:38.367Z,4.68
2022-10-12T16:18:45.236Z,4.00
2022-10-12T16:23:47.237Z,3.42
2022-10-12T16:28:49.546Z,3.42
2022-10-12T16:33:51.753Z,3.53
2022-10-12T16:38:54.323Z,3.10
2022-10-12T16:43:56.487Z,2.83
2022-10-12T16:48:58.541Z,3.85
2022-10-12T16:54:00.903Z,3.72
2022-10-12T16:59:03.340Z,3.65
2022-10-12T17:04:05.442Z,3.80
2022-10-12T17:09:08.800Z,4.47
2022-10-12T17:14:14.255Z,4.15
2022-10-12T17:19:20.697Z,4.28
2022-10-12T17:24:24.578Z,3.63
2022-10-12T17:29:28.983Z,5.63
2022-10-12T17:34:36.609Z,5.32
2022-10-12T17:39:43.222Z,4.75
2022-10-12T17:44:45.194Z,5.07
2022-10-12T17:49:47.175Z,5.28
2022-10-12T17:54:49.201Z,5.72
2022-10-12T17:59:51.275Z,5.38
2022-10-12T18:04:53.366Z,4.80
2022-10-12T18:09:55.465Z,5.35
2022-10-12T18:14:57.570Z,4.75
2022-10-12T18:19:59.946Z,4.47
2022-10-12T18:25:02.305Z,4.65
2022-10-12T18:30:04.995Z,5.03
2022-10-12T18:35:07.471Z,5.30
2022-10-12T18:40:10.548Z,5.13
2022-10-12T18:45:13.949Z,6.07
2022-10-12T18:50:16.123Z,6.45
2022-10-12T18:55:18.136Z,6.57
2022-10-12T19:00:20.183Z,6.38
2022-10-12T19:05:22.224Z,8.45
2022-10-12T19:10:24.227Z,8.45
2022-10-12T19:15:28.441Z,9.65
2022-10-12T19:20:32.417Z,10.23
2022-10-12T19:25:38.073Z,9.90
2022-10-12T19:30:40.104Z,9.07
2022-10-12T19:35:42.148Z,8.05
2022-10-12T19:40:51.917Z,8.32
2022-10-12T19:45:54.039Z,8.18
2022-10-12T19:51:03.381Z,8.20
2022-10-12T19:56:11.203Z,8.27
2022-10-12T20:01:22.395Z,7.85
2022-10-12T20:11:35.055Z,8.23
2022-10-12T20:16:37.531Z,7.82
2022-10-12T20:21:39.608Z,7.72
2022-10-12T20:26:42.212Z,8.15
2022-10-12T20:31:44.280Z,6.93
2022-10-12T20:36:46.316Z,7.20
2022-10-12T20:41:48.387Z,7.72
2022-10-12T20:46:50.459Z,8.75
2022-10-12T20:51:52.428Z,8.00
2022-10-12T20:56:54.434Z,7.38
2022-10-12T21:01:56.500Z,8.10
2022-10-12T21:06:58.560Z,8.80
2022-10-12T21:12:00.555Z,8.10
2022-10-12T21:17:05.573Z,8.18
2022-10-12T21:22:07.608Z,8.38
2022-10-12T21:27:09.733Z,10.63
2022-10-12T21:32:11.752Z,9.15
2022-10-12T21:37:13.876Z,9.38
2022-10-12T21:42:16.264Z,9.38
2022-10-12T21:47:18.608Z,8.45
2022-10-12T21:52:20.893Z,8.77
2022-10-12T21:57:23.054Z,9.55
2022-10-12T22:02:25.123Z,9.88
2022-10-12T22:07:27.125Z,10.10
2022-10-12T22:12:30.090Z,8.63
2022-10-12T22:17:32.191Z,9.73
2022-10-12T22:22:34.197Z,9.25
2022-10-12T22:27:36.186Z,9.32
2022-10-12T22:32:38.168Z,9.80
2022-10-12T22:37:40.163Z,9.43
2022-10-12T22:42:42.145Z,9.48
2022-10-12T22:47:44.099Z,10.20
2022-10-12T22:52:46.084Z,9.02
2022-10-12T22:57:48.073Z,9.48
2022-10-12T23:02:50.040Z,9.55
2022-10-12T23:07:52.062Z,10.23
2022-10-12T23:12:54.171Z,10.20
2022-10-12T23:17:56.142Z,9.63
2022-10-12T23:22:58.169Z,9.35
2022-10-12T23:28:00.241Z,9.23
2022-10-12T23:33:02.195Z,9.75
2022-10-12T23:38:04.285Z,9.57
2022-10-12T23:43:06.333Z,9.15
2022-10-12T23:48:08.301Z,9.52
2022-10-12T23:53:12.000Z,10.45
2022-10-12T23:58:14.038Z,10.27
